Time,TemperatureF,DewpointF,PressureIn,WindDirection,WindDirectionDegrees,WindSpeedMPH,WindSpeedGustMPH,Humidity,HourlyPrecipIn,Conditions,Clouds,dailyrainin,SolarRadiationWatts/m^2,SoftwareType,DateUTC
2013-03-24 00:02:00,37.0,34.0,-100.00,ENE,73,1.0,3.0,86,-99.99,,,0.00,0.000000,,2013-03-24 07:02:00,
2013-03-24 00:11:00,37.0,34.0,-100.00,ENE,73,1.0,3.0,86,-99.99,,,0.00,0.000000,,2013-03-24 07:11:00,
2013-03-24 00:42:00,37.0,34.0,-100.00,East,80,1.0,2.0,91,-99.99,,,0.00,0.000000,,2013-03-24 07:42:00,
2013-03-24 00:52:00,37.0,34.0,-100.00,East,80,1.0,2.0,91,-99.99,,,0.00,0.000000,,2013-03-24 07:52:00,
2013-03-24 01:02:00,37.0,34.0,-100.00,East,80,1.0,2.0,91,-99.99,,,0.00,0.000000,,2013-03-24 08:02:00,
2013-03-24 01:12:00,37.0,34.0,-100.00,East,80,1.0,2.0,91,-99.99,,,0.00,0.000000,,2013-03-24 08:12:00,
2013-03-24 01:42:00,37.0,35.0,-100.00,North,349,1.0,2.0,92,-99.99,,,0.00,0.000000,,2013-03-24 08:42:00,
2013-03-24 01:52:00,37.0,35.0,-100.00,North,349,1.0,2.0,92,-99.99,,,0.00,0.000000,,2013-03-24 08:52:00,
2013-03-24 02:02:00,37.0,35.0,-100.00,North,349,1.0,2.0,92,-99.99,,,0.00,0.000000,,2013-03-24 09:02:00,
2013-03-24 02:12:00,37.0,35.0,-100.00,North,349,1.0,2.0,92,-99.99,,,0.00,0.000000,,2013-03-24 09:12:00,
2013-03-24 02:42:00,38.0,36.0,-100.00,ESE,110,1.0,2.0,90,-99.99,,,0.00,0.000000,,2013-03-24 09:42:00,
2013-03-24 02:52:00,38.0,36.0,-100.00,ESE,110,1.0,2.0,90,-99.99,,,0.00,0.000000,,2013-03-24 09:52:00,
2013-03-24 03:02:00,38.0,36.0,-100.00,ESE,110,1.0,2.0,90,-99.99,,,0.00,0.000000,,2013-03-24 10:02:00,
2013-03-24 03:12:00,38.0,36.0,-100.00,ESE,110,1.0,2.0,90,-99.99,,,0.00,0.000000,,2013-03-24 10:12:00,
2013-03-24 03:42:00,40.0,36.0,-100.00,North,11,2.0,5.0,85,-99.99,,,0.00,0.000000,,2013-03-24 10:42:00,
2013-03-24 03:52:00,40.0,36.0,-100.00,North,11,2.0,5.0,85,-99.99,,,0.00,0.000000,,2013-03-24 10:52:00,
2013-03-24 04:02:00,40.0,36.0,-100.00,North,11,2.0,5.0,85,-99.99,,,0.00,0.000000,,2013-03-24 11:02:00,
2013-03-24 04:12:00,40.0,36.0,-100.00,North,11,2.0,5.0,85,-99.99,,,0.00,0.000000,,2013-03-24 11:12:00,
2013-03-24 04:42:00,39.0,36.0,-100.00,North,5,1.0,4.0,89,-99.99,,,0.00,0.000000,,2013-03-24 11:42:00,
2013-03-24 04:52:00,39.0,36.0,-100.00,North,5,1.0,4.0,89,-99.99,,,0.00,0.000000,,2013-03-24 11:52:00,
2013-03-24 05:02:00,39.0,36.0,-100.00,North,5,1.0,4.0,89,-99.99,,,0.00,0.000000,,2013-03-24 12:02:00,
2013-03-24 05:12:00,39.0,36.0,-100.00,North,5,1.0,4.0,89,-99.99,,,0.00,0.000000,,2013-03-24 12:12:00,
2013-03-24 05:42:00,38.0,35.0,-100.00,NW,316,2.0,4.0,89,-99.99,,,0.00,0.000000,,2013-03-24 12:42:00,
2013-03-24 05:52:00,38.0,35.0,-100.00,NW,316,2.0,4.0,89,-99.99,,,0.00,0.000000,,2013-03-24 12:52:00,
2013-03-24 06:02:00,38.0,35.0,-100.00,NW,316,2.0,4.0,89,-99.99,,,0.00,0.000000,,2013-03-24 13:02:00,
2013-03-24 06:12:00,38.0,35.0,-100.00,NW,316,2.0,4.0,89,-99.99,,,0.00,0.000000,,2013-03-24 13:12:00,
2013-03-24 06:42:00,38.0,35.0,-100.00,NE,39,1.0,2.0,90,-99.99,,,0.00,0.000000,,2013-03-24 13:42:00,
2013-03-24 06:52:00,38.0,35.0,-100.00,NE,39,1.0,2.0,90,-99.99,,,0.00,0.000000,,2013-03-24 13:52:00,
2013-03-24 07:02:00,38.0,35.0,-100.00,NE,39,1.0,2.0,90,-99.99,,,0.00,0.000000,,2013-03-24 14:02:00,
2013-03-24 07:12:00,38.0,35.0,-100.00,NE,39,1.0,2.0,90,-99.99,,,0.00,0.000000,,2013-03-24 14:12:00,
2013-03-24 07:42:00,38.0,35.0,-100.00,East,94,2.0,5.0,90,-99.99,,,0.00,1.280000,,2013-03-24 14:42:00,
2013-03-24 07:52:00,38.0,35.0,-100.00,East,94,2.0,5.0,90,-99.99,,,0.00,1.280000,,2013-03-24 14:52:00,
2013-03-24 08:02:00,38.0,35.0,-100.00,East,94,2.0,5.0,90,-99.99,,,0.00,1.280000,,2013-03-24 15:02:00,
2013-03-24 08:12:00,38.0,35.0,-100.00,East,94,2.0,5.0,90,-99.99,,,0.00,1.280000,,2013-03-24 15:12:00,
2013-03-24 08:43:00,39.0,36.0,-100.00,ENE,61,1.0,4.0,88,-99.99,,,0.00,60.669998,,2013-03-24 15:43:00,
2013-03-24 08:53:00,39.0,36.0,-100.00,ENE,61,1.0,4.0,88,-99.99,,,0.00,60.669998,,2013-03-24 15:53:00,
2013-03-24 09:02:00,39.0,36.0,-100.00,ENE,61,1.0,4.0,88,-99.99,,,0.00,60.669998,,2013-03-24 16:02:00,
2013-03-24 09:12:00,39.0,36.0,-100.00,ENE,61,1.0,4.0,88,-99.99,,,0.00,60.669998,,2013-03-24 16:12:00,
2013-03-24 09:42:00,44.0,37.0,-100.00,ENE,68,4.0,7.0,78,-99.99,,,0.00,341.799988,,2013-03-24 16:42:00,
2013-03-24 09:52:00,44.0,37.0,-100.00,ENE,68,4.0,7.0,78,-99.99,,,0.00,341.799988,,2013-03-24 16:52:00,
2013-03-24 10:02:00,44.0,37.0,-100.00,ENE,68,4.0,7.0,78,-99.99,,,0.00,341.799988,,2013-03-24 17:02:00,
2013-03-24 10:12:00,44.0,37.0,-100.00,ENE,68,4.0,7.0,78,-99.99,,,0.00,341.799988,,2013-03-24 17:12:00,
2013-03-24 10:42:00,48.0,36.0,-100.00,NNE,23,2.0,6.0,62,-99.99,,,-99.99,456.980011,,2013-03-24 17:42:00,
2013-03-24 10:53:00,48.0,36.0,-100.00,NNE,23,2.0,6.0,62,-99.99,,,-99.99,456.980011,,2013-03-24 17:53:00,
2013-03-24 11:02:00,48.0,36.0,-100.00,NNE,23,2.0,6.0,62,-99.99,,,-99.99,456.980011,,2013-03-24 18:02:00,
2013-03-24 11:12:00,48.0,36.0,-100.00,NNE,23,2.0,6.0,62,-99.99,,,-99.99,456.980011,,2013-03-24 18:12:00,
2013-03-24 11:42:00,49.0,34.0,-100.00,North,349,3.0,8.0,56,-99.99,,,0.00,613.869995,,2013-03-24 18:42:00,
2013-03-24 11:52:00,49.0,34.0,-100.00,North,349,3.0,8.0,56,-99.99,,,0.00,613.869995,,2013-03-24 18:52:00,
2013-03-24 12:02:00,49.0,34.0,-100.00,North,349,3.0,8.0,56,-99.99,,,0.00,613.869995,,2013-03-24 19:02:00,
2013-03-24 12:12:00,49.0,34.0,-100.00,North,349,3.0,8.0,56,-99.99,,,0.00,613.869995,,2013-03-24 19:12:00,
2013-03-24 12:42:00,50.0,37.0,-100.00,NW,324,4.0,12.0,61,-99.99,,,0.00,714.400024,,2013-03-24 19:42:00,
2013-03-24 12:53:00,50.0,37.0,-100.00,NW,324,4.0,12.0,61,-99.99,,,0.00,714.400024,,2013-03-24 19:53:00,
2013-03-24 13:02:00,50.0,37.0,-100.00,NW,324,4.0,12.0,61,-99.99,,,0.00,714.400024,,2013-03-24 20:02:00,
2013-03-24 13:12:00,50.0,37.0,-100.00,NW,324,4.0,12.0,61,-99.99,,,0.00,714.400024,,2013-03-24 20:12:00,
2013-03-24 13:42:00,50.0,36.0,-100.00,NNW,333,5.0,13.0,58,-99.99,,,0.00,615.729980,,2013-03-24 20:42:00,
2013-03-24 13:53:00,50.0,36.0,-100.00,NNW,333,5.0,13.0,58,-99.99,,,0.00,615.729980,,2013-03-24 20:53:00,
2013-03-24 14:02:00,50.0,36.0,-100.00,NNW,333,5.0,13.0,58,-99.99,,,0.00,615.729980,,2013-03-24 21:02:00,
2013-03-24 14:11:00,50.0,36.0,-100.00,NNW,333,5.0,13.0,58,-99.99,,,0.00,615.729980,,2013-03-24 21:11:00,
2013-03-24 14:43:00,49.0,37.0,-100.00,NNW,335,7.0,14.0,61,-99.99,,,0.00,640.489990,,2013-03-24 21:43:00,
2013-03-24 14:53:00,49.0,37.0,-100.00,NNW,335,7.0,14.0,61,-99.99,,,0.00,640.489990,,2013-03-24 21:53:00,
2013-03-24 15:02:00,49.0,37.0,-100.00,NNW,335,7.0,14.0,61,-99.99,,,0.00,640.489990,,2013-03-24 22:02:00,
2013-03-24 15:12:00,49.0,37.0,-100.00,NNW,335,7.0,14.0,61,-99.99,,,0.00,640.489990,,2013-03-24 22:12:00,
2013-03-24 15:42:00,50.0,37.0,-100.00,NNW,343,5.0,10.0,61,-99.99,,,0.00,438.730011,,2013-03-24 22:42:00,
2013-03-24 15:52:00,50.0,37.0,-100.00,NNW,343,5.0,10.0,61,-99.99,,,0.00,438.730011,,2013-03-24 22:52:00,
2013-03-24 16:02:00,50.0,37.0,-100.00,NNW,343,5.0,10.0,61,-99.99,,,0.00,438.730011,,2013-03-24 23:02:00,
2013-03-24 16:11:00,50.0,37.0,-100.00,NNW,343,5.0,10.0,61,-99.99,,,0.00,438.730011,,2013-03-24 23:11:00,
2013-03-24 16:42:00,50.0,37.0,-100.00,NNW,341,7.0,12.0,62,-99.99,,,0.00,390.269989,,2013-03-24 23:42:00,
2013-03-24 16:52:00,50.0,37.0,-100.00,NNW,341,7.0,12.0,62,-99.99,,,0.00,390.269989,,2013-03-24 23:52:00,
2013-03-24 17:02:00,50.0,37.0,-100.00,NNW,341,7.0,12.0,62,-99.99,,,0.00,390.269989,,2013-03-25 00:02:00,
2013-03-24 17:12:00,50.0,37.0,-100.00,NNW,341,7.0,12.0,62,-99.99,,,0.00,390.269989,,2013-03-25 00:12:00,
2013-03-24 18:42:00,48.0,39.0,-100.00,NNW,348,5.0,9.0,69,-99.99,,,0.00,144.690002,,2013-03-25 01:42:00,
2013-03-24 18:52:00,48.0,39.0,-100.00,NNW,348,5.0,9.0,69,-99.99,,,0.00,144.690002,,2013-03-25 01:52:00,
2013-03-24 19:02:00,48.0,39.0,-100.00,NNW,348,5.0,9.0,69,-99.99,,,0.00,144.690002,,2013-03-25 02:02:00,
2013-03-24 19:11:00,48.0,39.0,-100.00,NNW,348,5.0,9.0,69,-99.99,,,0.00,144.690002,,2013-03-25 02:11:00,
2013-03-24 19:42:00,47.0,39.0,-100.00,NNW,341,4.0,9.0,73,-99.99,,,0.00,24.750000,,2013-03-25 02:42:00,
2013-03-24 19:52:00,47.0,39.0,-100.00,NNW,341,4.0,9.0,73,-99.99,,,0.00,24.750000,,2013-03-25 02:52:00,
2013-03-24 20:02:00,47.0,39.0,-100.00,NNW,341,4.0,9.0,73,-99.99,,,0.00,24.750000,,2013-03-25 03:02:00,
2013-03-24 20:12:00,47.0,39.0,-100.00,NNW,341,4.0,9.0,73,-99.99,,,0.00,24.750000,,2013-03-25 03:12:00,
2013-03-24 20:42:00,47.0,40.0,-100.00,NNE,18,2.0,5.0,76,-99.99,,,0.00,0.000000,,2013-03-25 03:42:00,
2013-03-24 20:53:00,47.0,40.0,-100.00,NNE,18,2.0,5.0,76,-99.99,,,0.00,0.000000,,2013-03-25 03:53:00,
2013-03-24 21:02:00,47.0,40.0,-100.00,NNE,18,2.0,5.0,76,-99.99,,,0.00,0.000000,,2013-03-25 04:02:00,
2013-03-24 21:12:00,47.0,40.0,-100.00,NNE,18,2.0,5.0,76,-99.99,,,0.00,0.000000,,2013-03-25 04:12:00,
2013-03-24 21:42:00,45.0,39.0,-100.00,ENE,61,1.0,3.0,79,-99.99,,,0.00,0.000000,,2013-03-25 04:42:00,
2013-03-24 21:52:00,45.0,39.0,-100.00,ENE,61,1.0,3.0,79,-99.99,,,0.00,0.000000,,2013-03-25 04:52:00,
2013-03-24 22:02:00,45.0,39.0,-100.00,ENE,61,1.0,3.0,79,-99.99,,,0.00,0.000000,,2013-03-25 05:02:00,
2013-03-24 22:12:00,45.0,39.0,-100.00,ENE,61,1.0,3.0,79,-99.99,,,0.00,0.000000,,2013-03-25 05:12:00,
2013-03-24 22:42:00,45.0,39.0,-100.00,NE,52,2.0,4.0,80,-99.99,,,0.00,0.000000,,2013-03-25 05:42:00,
2013-03-24 22:52:00,45.0,39.0,-100.00,NE,52,2.0,4.0,80,-99.99,,,0.00,0.000000,,2013-03-25 05:52:00,
2013-03-24 23:02:00,45.0,39.0,-100.00,NE,52,2.0,4.0,80,-99.99,,,0.00,0.000000,,2013-03-25 06:02:00,
2013-03-24 23:12:00,45.0,39.0,-100.00,NE,52,2.0,4.0,80,-99.99,,,0.00,0.000000,,2013-03-25 06:12:00,
2013-03-24 23:42:00,43.0,39.0,-100.00,East,98,1.0,2.0,84,-99.99,,,0.00,0.000000,,2013-03-25 06:42:00,
2013-03-24 23:52:00,43.0,39.0,-100.00,East,98,1.0,2.0,84,-99.99,,,0.00,0.000000,,2013-03-25 06:52:00,